createdAt,value
2023-02-08T00:01:12.968Z,0
2023-02-08T00:03:10.124Z,0
2023-02-08T00:05:09.271Z,0
2023-02-08T00:07:09.674Z,0
2023-02-08T00:09:09.450Z,0
2023-02-08T00:11:10.201Z,0
2023-02-08T00:13:09.369Z,0
2023-02-08T00:15:09.042Z,0
2023-02-08T00:17:09.970Z,0
2023-02-08T00:19:09.543Z,0
2023-02-08T00:21:08.991Z,0
2023-02-08T00:23:09.696Z,0
2023-02-08T00:25:09.173Z,0
2023-02-08T00:27:09.510Z,0
2023-02-08T00:29:12.180Z,0
2023-02-08T00:31:10.064Z,0
2023-02-08T00:33:09.168Z,0
2023-02-08T00:35:09.473Z,0
2023-02-08T00:37:08.982Z,0
2023-02-08T00:39:09.728Z,0
2023-02-08T00:41:09.224Z,0
2023-02-08T00:43:09.516Z,0
2023-02-08T00:45:09.025Z,0
2023-02-08T00:47:10.089Z,0
2023-02-08T00:49:09.166Z,0
2023-02-08T00:51:09.630Z,0
2023-02-08T00:53:09.162Z,0
2023-02-08T00:55:09.756Z,0
2023-02-08T00:57:09.117Z,0
2023-02-08T00:59:09.425Z,2.79
2023-02-08T01:01:13.003Z,2.79
2023-02-08T01:03:09.492Z,1.92
2023-02-08T01:05:09.503Z,1.92
2023-02-08T01:07:09.178Z,1.92
2023-02-08T01:09:09.414Z,1.92
2023-02-08T01:11:09.042Z,1.92
2023-02-08T01:13:09.510Z,1.92
2023-02-08T01:15:09.143Z,1.92
2023-02-08T01:17:10.139Z,1.92
2023-02-08T01:19:09.454Z,1.92
2023-02-08T01:21:09.761Z,1.92
2023-02-08T01:23:09.513Z,1.92
2023-02-08T01:25:09.094Z,1.92
2023-02-08T01:27:09.623Z,1.92
2023-02-08T01:29:09.410Z,1.92
2023-02-08T01:31:10.156Z,1.92
2023-02-08T01:33:09.444Z,1.92
2023-02-08T01:35:08.874Z,1.92
2023-02-08T01:37:09.161Z,1.92
2023-02-08T01:39:09.792Z,1.92
2023-02-08T01:41:09.268Z,1.92
2023-02-08T01:43:10.580Z,1.92
2023-02-08T01:45:09.027Z,1.92
2023-02-08T01:47:09.738Z,1.92
2023-02-08T01:49:09.021Z,1.92
2023-02-08T01:51:09.669Z,1.92
2023-02-08T01:53:09.016Z,1.92
2023-02-08T01:55:09.660Z,1.92
2023-02-08T01:57:08.968Z,1.92
2023-02-08T01:59:09.538Z,1.92
2023-02-08T02:01:10.718Z,1.92
2023-02-08T02:03:09.366Z,1.92
2023-02-08T02:05:09.879Z,1.92
2023-02-08T02:07:09.106Z,1.92
2023-02-08T02:09:09.912Z,1.92
2023-02-08T02:11:09.324Z,1.92
2023-02-08T02:13:09.586Z,1.92
2023-02-08T02:15:09.131Z,0.03
2023-02-08T02:17:09.849Z,0.03
2023-02-08T02:19:09.093Z,0.03
2023-02-08T02:21:11.868Z,0.03
2023-02-08T02:23:09.439Z,0.03
2023-02-08T02:25:08.948Z,0.03
2023-02-08T02:27:09.329Z,0.03
2023-02-08T02:29:09.348Z,0.03
2023-02-08T02:31:09.869Z,0.03
2023-02-08T02:33:09.430Z,0.03
2023-02-08T02:35:09.884Z,0.03
2023-02-08T02:37:09.248Z,0.03
2023-02-08T02:39:09.753Z,0.03
2023-02-08T02:41:09.204Z,0.03
2023-02-08T02:43:09.682Z,0.03
2023-02-08T02:45:09.101Z,0.03
2023-02-08T02:47:09.903Z,0.03
2023-02-08T02:49:09.311Z,0.03
2023-02-08T02:51:09.971Z,0.03
2023-02-08T02:53:09.285Z,0.03
2023-02-08T02:55:09.791Z,0.03
2023-02-08T02:57:09.185Z,0.03
2023-02-08T02:59:10.225Z,0.03
2023-02-08T03:01:12.855Z,0.03
2023-02-08T03:03:08.925Z,0.03
2023-02-08T03:05:09.682Z,0.03
2023-02-08T03:07:09.117Z,0.03
2023-02-08T03:09:09.620Z,0.03
2023-02-08T03:11:09.316Z,0.03
2023-02-08T03:13:09.683Z,0.03
2023-02-08T03:15:09.128Z,0.03
2023-02-08T03:17:10.247Z,0.03
2023-02-08T03:19:09.275Z,0.03
2023-02-08T03:21:09.699Z,0.03
2023-02-08T03:23:09.146Z,0.03
2023-02-08T03:25:09.873Z,0.03
2023-02-08T03:27:09.240Z,0.03
2023-02-08T03:29:09.700Z,0.03
2023-02-08T03:31:09.976Z,0.03
2023-02-08T03:33:09.980Z,0.03
2023-02-08T03:35:09.263Z,0.03
2023-02-08T03:37:09.677Z,0.03
2023-02-08T03:39:09.352Z,0.03
2023-02-08T03:41:09.813Z,0.03
2023-02-08T03:43:09.197Z,0.03
2023-02-08T03:45:09.940Z,0.03
2023-02-08T03:47:09.502Z,0.03
2023-02-08T03:49:08.894Z,0.03
2023-02-08T03:51:09.306Z,0.03
2023-02-08T03:53:08.900Z,0.03
2023-02-08T03:55:09.638Z,0.03
2023-02-08T03:57:08.944Z,0.03
2023-02-08T03:59:09.325Z,0.03
2023-02-08T04:01:13.521Z,0.03
2023-02-08T04:03:09.282Z,0.03
2023-02-08T04:05:09.506Z,0.03
2023-02-08T04:07:08.906Z,0.03
2023-02-08T04:09:09.532Z,0.03
2023-02-08T04:11:09.242Z,0.03
2023-02-08T04:13:09.497Z,0.03
2023-02-08T04:15:09.059Z,0.03
2023-02-08T04:17:09.640Z,0.03
2023-02-08T04:19:09.103Z,0.03
2023-02-08T04:21:09.444Z,0.03
2023-02-08T04:23:09.032Z,0.03
2023-02-08T04:25:09.653Z,0.03
2023-02-08T04:27:09.098Z,0.03
2023-02-08T04:29:09.912Z,0.03
2023-02-08T04:31:09.704Z,0.03
2023-02-08T04:33:09.696Z,0.03
2023-02-08T04:35:09.272Z,0.03
2023-02-08T04:37:09.738Z,0.03
2023-02-08T04:39:09.258Z,0.03
2023-02-08T04:41:09.702Z,0.03
2023-02-08T04:43:11.108Z,0.03
2023-02-08T04:45:09.820Z,0.03
2023-02-08T04:47:09.548Z,0.03
2023-02-08T04:49:10.412Z,0.03
2023-02-08T04:51:09.464Z,0.03
2023-02-08T04:53:09.070Z,0.03
2023-02-08T04:55:10.004Z,0.03
2023-02-08T04:57:09.092Z,0.03
2023-02-08T04:59:09.772Z,0.03
2023-02-08T05:01:12.651Z,0.03
2023-02-08T05:03:09.580Z,0.03
2023-02-08T05:05:09.234Z,0.03
2023-02-08T05:07:11.045Z,0.03
2023-02-08T05:09:09.212Z,0.03
2023-02-08T05:11:09.730Z,0.03
2023-02-08T05:13:09.057Z,0.03
2023-02-08T05:15:09.719Z,0.03
2023-02-08T05:17:09.508Z,0.03
2023-02-08T05:19:09.849Z,0.03
2023-02-08T05:21:09.398Z,0.03
2023-02-08T05:23:08.944Z,0.03
2023-02-08T05:25:09.591Z,0.03
2023-02-08T05:27:09.039Z,0.03
2023-02-08T05:29:09.657Z,0.03
2023-02-08T05:31:09.494Z,0.03
2023-02-08T05:33:09.802Z,0.03
2023-02-08T05:35:09.122Z,0.03
2023-02-08T05:37:12.522Z,0.03
2023-02-08T05:39:08.995Z,0.03
2023-02-08T05:41:09.702Z,0.03
2023-02-08T05:43:09.135Z,0.03
2023-02-08T05:45:09.516Z,0.03
2023-02-08T05:47:12.290Z,0.03
2023-02-08T05:49:09.377Z,0.03
2023-02-08T05:51:09.133Z,0.03
2023-02-08T05:53:09.752Z,0.03
2023-02-08T05:55:09.230Z,0.03
2023-02-08T05:57:09.606Z,0.03
2023-02-08T05:59:09.324Z,0.03
2023-02-08T06:01:09.150Z,0.03
2023-02-08T06:03:09.690Z,0.03
2023-02-08T06:05:12.880Z,0.03
2023-02-08T06:07:09.476Z,0.03
2023-02-08T06:09:09.637Z,0.03
2023-02-08T06:11:09.387Z,0.03
2023-02-08T06:13:09.670Z,0.03
2023-02-08T06:15:09.221Z,0.03
2023-02-08T06:17:10.232Z,0.03
2023-02-08T06:19:09.269Z,0.03
2023-02-08T06:21:09.692Z,0.03
2023-02-08T06:23:09.322Z,0.03
2023-02-08T06:25:09.748Z,0.03
2023-02-08T06:27:09.123Z,0.03
2023-02-08T06:29:09.797Z,0.03
2023-02-08T06:31:09.301Z,0.03
2023-02-08T06:33:10.215Z,0.03
2023-02-08T06:35:09.165Z,0.03
2023-02-08T06:37:09.648Z,0.03
2023-02-08T06:39:09.178Z,0.03
2023-02-08T06:41:09.775Z,0.03
2023-02-08T06:43:09.123Z,0.03
2023-02-08T06:45:17.938Z,0.03
2023-02-08T06:47:09.298Z,0.03
2023-02-08T06:49:09.601Z,0.03
2023-02-08T06:51:09.361Z,0.03
2023-02-08T06:53:09.067Z,0.03
2023-02-08T06:55:09.548Z,0.03
2023-02-08T06:57:08.883Z,0.03
2023-02-08T06:59:09.410Z,0.03
2023-02-08T07:01:15.305Z,0.03
2023-02-08T07:03:09.531Z,0.03
2023-02-08T07:05:09.668Z,0.03
2023-02-08T07:07:13.167Z,0.03
2023-02-08T07:09:09.793Z,0.03
2023-02-08T07:11:09.282Z,0.03
2023-02-08T07:13:09.431Z,0.03
2023-02-08T07:15:09.250Z,0.03
2023-02-08T07:17:09.975Z,0.03
2023-02-08T07:19:09.020Z,0.03
2023-02-08T07:21:09.813Z,0.03
2023-02-08T07:23:09.330Z,0.03
2023-02-08T07:25:09.762Z,0.03
2023-02-08T07:27:09.205Z,0.03
2023-02-08T07:29:10.701Z,0.03
2023-02-08T07:31:09.821Z,0.03
2023-02-08T07:33:09.951Z,0.03
2023-02-08T07:35:09.127Z,0.03
2023-02-08T07:37:09.653Z,0.03
2023-02-08T07:39:09.211Z,0.03
2023-02-08T07:41:09.604Z,0.03
2023-02-08T07:43:09.252Z,0.03
2023-02-08T07:45:09.802Z,0.03
2023-02-08T07:47:09.375Z,0.03
2023-02-08T07:49:09.584Z,0.03
2023-02-08T07:51:09.309Z,0.03
2023-02-08T07:53:09.845Z,0.03
2023-02-08T07:55:09.153Z,0.03
2023-02-08T07:57:09.658Z,0.03
2023-02-08T07:59:09.146Z,0.03
2023-02-08T08:01:31.210Z,0.03
2023-02-08T08:03:09.632Z,0.03
2023-02-08T08:05:09.352Z,0.03
2023-02-08T08:07:09.753Z,0.03
2023-02-08T08:09:09.179Z,0.03
2023-02-08T08:11:09.791Z,0.03
2023-02-08T08:13:09.294Z,0.03
2023-02-08T08:15:09.771Z,0.03
2023-02-08T08:17:09.796Z,0.03
2023-02-08T08:19:09.832Z,0.03
2023-02-08T08:21:09.286Z,0.03
2023-02-08T08:23:09.645Z,0.03
2023-02-08T08:25:09.067Z,0.03
2023-02-08T08:27:09.561Z,0.03
2023-02-08T08:29:09.922Z,0.03
2023-02-08T08:31:10.292Z,0.03
2023-02-08T08:33:09.038Z,0.03
2023-02-08T08:35:09.527Z,0.03
2023-02-08T08:37:09.253Z,0.03
2023-02-08T08:39:09.414Z,0.03
2023-02-08T08:41:10.357Z,0.03
2023-02-08T08:43:09.507Z,0.03
2023-02-08T08:45:08.961Z,0.03
2023-02-08T08:47:10.032Z,0.03
2023-02-08T08:49:09.148Z,0.03
2023-02-08T08:51:10.462Z,0.03
2023-02-08T08:53:09.172Z,0.03
2023-02-08T08:55:09.907Z,0.03
2023-02-08T08:57:09.120Z,0.03
2023-02-08T08:59:09.659Z,0.03
2023-02-08T09:01:12.826Z,0.03
2023-02-08T09:03:09.718Z,0.03
2023-02-08T09:05:09.910Z,0.03
2023-02-08T09:07:09.422Z,0.03
2023-02-08T09:09:08.845Z,0.03
2023-02-08T09:11:09.543Z,0.03
2023-02-08T09:13:09.473Z,0.03
2023-02-08T09:15:12.307Z,0.03
2023-02-08T09:17:09.310Z,0.03
2023-02-08T09:19:09.549Z,0.03
2023-02-08T09:21:12.242Z,0.03
2023-02-08T09:23:09.740Z,0.03
2023-02-08T09:25:08.939Z,14.64
2023-02-08T09:27:09.534Z,14.64
2023-02-08T09:29:09.486Z,14.64
2023-02-08T09:31:10.008Z,4.71
2023-02-08T09:33:09.305Z,4.71
2023-02-08T09:35:09.658Z,4.71
2023-02-08T09:37:09.209Z,0.02
2023-02-08T09:39:09.749Z,0.02
2023-02-08T09:41:09.160Z,0.02
2023-02-08T09:43:09.664Z,1.66
2023-02-08T09:45:09.113Z,1.66
2023-02-08T09:47:09.736Z,1.66
2023-02-08T09:49:08.971Z,0.01
2023-02-08T09:51:09.669Z,0.01
2023-02-08T09:53:09.096Z,0.01
2023-02-08T09:55:09.515Z,0.01
2023-02-08T09:57:09.880Z,0.01
2023-02-08T09:59:09.563Z,0.01
2023-02-08T10:01:09.463Z,0.01
2023-02-08T10:03:09.073Z,0.01
2023-02-08T10:05:09.457Z,0.01
2023-02-08T10:07:12.461Z,0.01
2023-02-08T10:09:20.098Z,0.01
2023-02-08T10:11:09.116Z,0.01
2023-02-08T10:13:09.630Z,0.01
2023-02-08T10:15:09.198Z,0.01
2023-02-08T10:17:09.725Z,0.01
2023-02-08T10:19:09.402Z,0.01
2023-02-08T10:21:09.744Z,0.01
2023-02-08T10:23:09.129Z,0.01
2023-02-08T10:25:09.460Z,0.01
2023-02-08T10:27:10.031Z,0.01
2023-02-08T10:29:09.588Z,0.01
2023-02-08T10:31:10.356Z,0.01
2023-02-08T10:33:09.202Z,0.01
2023-02-08T10:35:09.480Z,0.01
2023-02-08T10:37:09.944Z,0.01
2023-02-08T10:39:20.639Z,0.01
2023-02-08T10:41:09.791Z,0.01
2023-02-08T10:43:09.230Z,0.01
2023-02-08T10:45:23.550Z,0.01
2023-02-08T10:47:09.281Z,0.01
2023-02-08T10:49:09.993Z,0.01
2023-02-08T10:51:09.328Z,0.01
2023-02-08T10:53:10.090Z,0.01
2023-02-08T10:55:09.279Z,0.01
2023-02-08T10:57:09.835Z,0.01
2023-02-08T10:59:09.529Z,0.01
2023-02-08T11:01:13.421Z,0.05
2023-02-08T11:03:08.918Z,0.05
2023-02-08T11:05:09.641Z,0.05
2023-02-08T11:07:09.987Z,0.03
2023-02-08T11:09:09.428Z,0.03
2023-02-08T11:11:09.968Z,0.03
2023-02-08T11:13:09.275Z,0.02
2023-02-08T11:15:21.264Z,0.02
2023-02-08T11:17:09.647Z,0.02
2023-02-08T11:19:09.883Z,0.01
2023-02-08T11:21:09.319Z,0.01
2023-02-08T11:23:09.776Z,0.01
2023-02-08T11:25:09.076Z,0.01
2023-02-08T11:27:09.703Z,0.01
2023-02-08T11:29:09.329Z,0.01
2023-02-08T11:31:10.053Z,1.05
2023-02-08T11:33:09.369Z,1.05
2023-02-08T11:35:09.900Z,0.98
2023-02-08T11:37:09.084Z,0.98
2023-02-08T11:39:09.461Z,0.98
2023-02-08T11:41:09.282Z,0.98
2023-02-08T11:43:09.765Z,0.93
2023-02-08T11:45:09.236Z,0.93
2023-02-08T11:47:10.129Z,0.01
2023-02-08T11:49:09.638Z,0.01
2023-02-08T11:51:09.851Z,0.01
2023-02-08T11:53:09.046Z,0.01
2023-02-08T11:55:09.816Z,0.01
2023-02-08T11:57:09.206Z,0.01
2023-02-08T11:59:09.538Z,0.01
2023-02-08T12:01:13.260Z,0.01
2023-02-08T12:03:09.511Z,0.01
2023-02-08T12:05:09.784Z,0.01
2023-02-08T12:07:09.643Z,0.01
2023-02-08T12:09:09.665Z,0.01
2023-02-08T12:11:09.370Z,0.01
2023-02-08T12:13:09.800Z,0.01
2023-02-08T12:15:09.218Z,0.01
2023-02-08T12:17:10.296Z,0.01
2023-02-08T12:19:09.203Z,0.01
2023-02-08T12:21:09.998Z,0.01
2023-02-08T12:23:09.222Z,0.01
2023-02-08T12:25:09.667Z,0.01
2023-02-08T12:27:09.365Z,0.01
2023-02-08T12:29:09.649Z,0.01
2023-02-08T12:31:09.493Z,0.01
2023-02-08T12:33:09.561Z,0.01
2023-02-08T12:35:09.161Z,0.01
2023-02-08T12:37:13.094Z,0.77
2023-02-08T12:39:19.926Z,0.77
2023-02-08T12:41:09.562Z,0.77
2023-02-08T12:43:09.758Z,0.01
2023-02-08T12:45:09.186Z,0.01
2023-02-08T12:47:10.089Z,0.01
2023-02-08T12:49:12.367Z,0.75
2023-02-08T12:51:09.540Z,0.75
2023-02-08T12:53:09.028Z,0.75
2023-02-08T12:55:09.553Z,0.01
2023-02-08T12:57:23.987Z,0.01
2023-02-08T12:59:24.185Z,0.01
2023-02-08T13:01:12.401Z,0.01
2023-02-08T13:03:09.346Z,0.01
2023-02-08T13:05:09.546Z,0.01
2023-02-08T13:07:10.737Z,0.01
2023-02-08T13:09:09.293Z,0.01
2023-02-08T13:11:22.066Z,0.01
2023-02-08T13:13:09.286Z,0.01
2023-02-08T13:15:15.890Z,0.01
2023-02-08T13:17:09.349Z,0.01
2023-02-08T13:19:09.550Z,0.01
2023-02-08T13:21:09.027Z,0.01
2023-02-08T13:23:09.726Z,0.01
2023-02-08T13:25:20.093Z,0.71
2023-02-08T13:27:12.443Z,0.71
2023-02-08T13:29:12.709Z,0.71
2023-02-08T13:31:14.107Z,0.01
2023-02-08T13:33:09.419Z,0.01
2023-02-08T13:35:10.002Z,0.01
2023-02-08T13:37:24.168Z,0.01
2023-02-08T13:39:09.030Z,0.01
2023-02-08T13:41:09.697Z,0.01
2023-02-08T13:43:09.267Z,0.01
2023-02-08T13:45:09.793Z,0.01
2023-02-08T13:47:09.691Z,0.01
2023-02-08T13:49:09.778Z,0.01
2023-02-08T13:51:09.827Z,0.01
2023-02-08T13:53:22.432Z,0.01
2023-02-08T13:55:09.377Z,0.01
2023-02-08T13:57:08.899Z,0.01
2023-02-08T13:59:09.161Z,0.01
2023-02-08T14:01:12.723Z,0.01
2023-02-08T14:03:10.186Z,0.01
2023-02-08T14:05:09.176Z,0.01
2023-02-08T14:07:09.195Z,0.69
2023-02-08T14:09:09.818Z,0.69
2023-02-08T14:11:09.203Z,0.69
2023-02-08T14:13:09.474Z,0.01
2023-02-08T14:15:09.093Z,0.01
2023-02-08T14:17:09.896Z,0.01
2023-02-08T14:19:09.128Z,0.01
2023-02-08T14:21:09.411Z,0.01
2023-02-08T14:23:09.241Z,0.01
2023-02-08T14:25:09.441Z,0.01
2023-02-08T14:27:09.593Z,0.01
2023-02-08T14:29:09.517Z,0.01
2023-02-08T14:31:09.553Z,0.67
2023-02-08T14:33:09.503Z,0.67
2023-02-08T14:35:09.544Z,0.67
2023-02-08T14:37:08.914Z,0.67
2023-02-08T14:39:11.389Z,0.67
2023-02-08T14:41:10.279Z,0.67
2023-02-08T14:43:09.532Z,0.01
2023-02-08T14:45:09.148Z,0.01
2023-02-08T14:47:09.813Z,0.01
2023-02-08T14:49:09.007Z,0.01
2023-02-08T14:51:09.387Z,0.01
2023-02-08T14:53:09.347Z,0.01
2023-02-08T14:55:09.482Z,0.66
2023-02-08T14:57:08.947Z,0.66
2023-02-08T14:59:09.505Z,0.66
2023-02-08T15:01:12.835Z,0.66
2023-02-08T15:03:09.419Z,0.66
2023-02-08T15:05:10.629Z,0.66
2023-02-08T15:07:13.360Z,0.01
2023-02-08T15:09:09.753Z,0.01
2023-02-08T15:11:09.291Z,0.01
2023-02-08T15:13:09.618Z,0.01
2023-02-08T15:15:09.329Z,0.66
2023-02-08T15:17:10.071Z,0.66
2023-02-08T15:19:09.216Z,0.66
2023-02-08T15:21:09.713Z,0.01
2023-02-08T15:23:09.341Z,0.01
2023-02-08T15:25:13.109Z,0.01
2023-02-08T15:27:08.806Z,0.01
2023-02-08T15:29:10.566Z,0.01
2023-02-08T15:31:10.005Z,0.01
2023-02-08T15:33:09.246Z,0.01
2023-02-08T15:35:09.655Z,0.01
2023-02-08T15:37:09.213Z,0.01
2023-02-08T15:39:09.479Z,0.66
2023-02-08T15:41:08.899Z,0.66
2023-02-08T15:43:09.411Z,0.66
2023-02-08T15:45:09.047Z,0.65
2023-02-08T15:47:09.631Z,0.65
2023-02-08T15:49:08.823Z,0.65
2023-02-08T15:51:09.461Z,0.65
2023-02-08T15:53:09.142Z,0.65
2023-02-08T15:55:09.504Z,0.65
2023-02-08T15:57:22.074Z,0.65
2023-02-08T15:59:09.352Z,0.01
2023-02-08T16:01:13.074Z,0.01
2023-02-08T16:03:09.319Z,0.01
2023-02-08T16:05:09.699Z,0.01
2023-02-08T16:07:09.143Z,0.01
2023-02-08T16:09:11.737Z,0.01
2023-02-08T16:11:09.289Z,0.01
2023-02-08T16:13:09.606Z,0.01
2023-02-08T16:15:26.161Z,0.01
2023-02-08T16:17:16.960Z,0.01
2023-02-08T16:19:09.206Z,0.01
2023-02-08T16:21:13.940Z,0.01
2023-02-08T16:23:09.501Z,0.01
2023-02-08T16:25:09.854Z,0.01
2023-02-08T16:27:09.159Z,0.01
2023-02-08T16:29:10.168Z,0.01
2023-02-08T16:31:10.704Z,0.01
2023-02-08T16:33:10.356Z,0.01
2023-02-08T16:35:09.317Z,0.01
2023-02-08T16:37:09.014Z,0.01
2023-02-08T16:39:09.653Z,0.01
2023-02-08T16:41:09.144Z,0.01
2023-02-08T16:43:24.968Z,0.59
2023-02-08T16:45:09.493Z,0.59
2023-02-08T16:47:09.656Z,0.59
2023-02-08T16:49:26.006Z,0.59
2023-02-08T16:51:09.793Z,0.59
2023-02-08T16:53:09.273Z,0.59
2023-02-08T16:55:10.795Z,0.59
2023-02-08T16:57:09.362Z,0.59
2023-02-08T16:59:10.107Z,0.59
2023-02-08T17:01:12.918Z,0.01
2023-02-08T17:03:08.987Z,0.01
2023-02-08T17:05:12.319Z,0.01
2023-02-08T17:07:09.202Z,0.57
2023-02-08T17:09:09.655Z,0.57
2023-02-08T17:11:09.367Z,0.57
2023-02-08T17:13:47.086Z,0.01
2023-02-08T17:15:09.440Z,0.01
2023-02-08T17:17:10.033Z,0.01
2023-02-08T17:19:09.250Z,0.56
2023-02-08T17:21:09.909Z,0.56
2023-02-08T17:23:09.133Z,0.56
2023-02-08T17:25:12.645Z,0.56
2023-02-08T17:27:08.924Z,0.01
2023-02-08T17:29:09.685Z,0.01
2023-02-08T17:31:09.968Z,0.56
2023-02-08T17:33:09.597Z,0.01
2023-02-08T17:35:08.952Z,0.01
2023-02-08T17:37:09.502Z,0.01
2023-02-08T17:39:08.961Z,0.01
2023-02-08T17:41:09.420Z,0.01
2023-02-08T17:43:10.300Z,0.01
2023-02-08T17:45:09.949Z,0.01
2023-02-08T17:47:09.488Z,0.01
2023-02-08T17:49:11.096Z,0.01
2023-02-08T17:51:09.482Z,0.54
2023-02-08T17:53:10.133Z,0.54
2023-02-08T17:55:11.535Z,0.54
2023-02-08T17:57:09.678Z,0.54
2023-02-08T17:59:14.027Z,0.54
2023-02-08T18:01:12.372Z,0.54
2023-02-08T18:03:12.647Z,0.53
2023-02-08T18:05:09.789Z,0.53
2023-02-08T18:07:09.373Z,0.53
2023-02-08T18:09:11.483Z,0.01
2023-02-08T18:11:09.301Z,0.01
2023-02-08T18:13:09.152Z,0.01
2023-02-08T18:15:11.023Z,0.01
2023-02-08T18:17:09.484Z,0.01
2023-02-08T18:19:09.704Z,0.01
2023-02-08T18:21:09.282Z,0.53
2023-02-08T18:23:10.349Z,0.53
2023-02-08T18:25:08.818Z,0.53
2023-02-08T18:27:11.124Z,0.53
2023-02-08T18:29:09.338Z,0.53
2023-02-08T18:31:09.907Z,0.53
2023-02-08T18:33:09.381Z,0.01
2023-02-08T18:35:09.987Z,0.01
2023-02-08T18:37:09.094Z,0.01
2023-02-08T18:39:09.380Z,0.52
2023-02-08T18:41:09.143Z,0.52
2023-02-08T18:43:10.302Z,0.52
2023-02-08T18:45:09.297Z,0.01
2023-02-08T18:47:09.781Z,0.01
2023-02-08T18:49:09.055Z,0.01
2023-02-08T18:51:09.622Z,0.01
2023-02-08T18:53:09.038Z,0.01
2023-02-08T18:55:09.376Z,0.01
2023-02-08T18:57:09.803Z,0.51
2023-02-08T18:59:09.326Z,0.51
2023-02-08T19:01:15.749Z,0.51
2023-02-08T19:03:13.198Z,0.51
2023-02-08T19:05:09.625Z,0.51
2023-02-08T19:07:09.045Z,0.51
2023-02-08T19:09:09.594Z,0.51
2023-02-08T19:11:08.976Z,0.51
2023-02-08T19:13:09.454Z,0.51
2023-02-08T19:15:09.805Z,0.51
2023-02-08T19:17:09.446Z,0.51
2023-02-08T19:19:09.530Z,0.51
2023-02-08T19:21:09.222Z,0.51
2023-02-08T19:23:09.927Z,0.51
2023-02-08T19:25:11.695Z,0
2023-02-08T19:27:09.866Z,0
2023-02-08T19:29:09.498Z,0
2023-02-08T19:31:10.205Z,0
2023-02-08T19:33:09.556Z,0
2023-02-08T19:35:09.818Z,0
2023-02-08T19:37:09.438Z,0
2023-02-08T19:39:09.800Z,0
2023-02-08T19:41:09.455Z,0
2023-02-08T19:43:09.696Z,0
2023-02-08T19:45:09.209Z,0
2023-02-08T19:47:09.660Z,0
2023-02-08T19:49:08.941Z,0
2023-02-08T19:51:09.695Z,0
2023-02-08T19:53:09.166Z,0
2023-02-08T19:55:09.664Z,0
2023-02-08T19:57:09.164Z,0
2023-02-08T19:59:09.755Z,0
2023-02-08T20:01:25.777Z,0
2023-02-08T20:03:20.898Z,0
2023-02-08T20:05:09.538Z,0
2023-02-08T20:07:09.276Z,0
2023-02-08T20:09:12.130Z,0
2023-02-08T20:11:09.366Z,0
2023-02-08T20:13:09.948Z,0
2023-02-08T20:15:09.362Z,0
2023-02-08T20:17:09.077Z,0
2023-02-08T20:19:09.463Z,0
2023-02-08T20:21:09.080Z,0
2023-02-08T20:23:21.782Z,0
2023-02-08T20:25:09.146Z,0.49
2023-02-08T20:27:09.687Z,0.49
2023-02-08T20:29:09.522Z,0.49
2023-02-08T20:31:10.268Z,0
2023-02-08T20:33:09.441Z,0
2023-02-08T20:35:21.248Z,0
2023-02-08T20:37:28.675Z,0
2023-02-08T20:39:09.249Z,0
2023-02-08T20:41:09.748Z,0
2023-02-08T20:43:09.371Z,0
2023-02-08T20:45:09.726Z,0
2023-02-08T20:47:09.466Z,0
2023-02-08T20:49:09.806Z,0.49
2023-02-08T20:51:23.282Z,0.49
2023-02-08T20:53:09.773Z,0.49
2023-02-08T20:55:09.224Z,0
2023-02-08T20:57:09.953Z,0
2023-02-08T20:59:09.286Z,0
2023-02-08T21:01:27.493Z,0
2023-02-08T21:03:09.284Z,0
2023-02-08T21:05:09.639Z,0
2023-02-08T21:07:09.153Z,0.48
2023-02-08T21:09:09.381Z,0.48
2023-02-08T21:11:09.446Z,0.48
2023-02-08T21:13:09.882Z,0.48
2023-02-08T21:15:09.499Z,0.48
2023-02-08T21:17:09.120Z,0.48
2023-02-08T21:19:09.463Z,0
2023-02-08T21:21:10.183Z,0
2023-02-08T21:23:09.354Z,0
2023-02-08T21:25:08.979Z,0
2023-02-08T21:27:09.331Z,0
2023-02-08T21:29:10.274Z,0
2023-02-08T21:31:10.527Z,0
2023-02-08T21:33:09.257Z,0
2023-02-08T21:35:09.415Z,0
2023-02-08T21:37:09.992Z,0
2023-02-08T21:39:09.295Z,0
2023-02-08T21:41:09.921Z,0
2023-02-08T21:43:09.313Z,0
2023-02-08T21:45:10.004Z,0
2023-02-08T21:47:09.480Z,0
2023-02-08T21:49:09.774Z,0
2023-02-08T21:51:09.801Z,0
2023-02-08T21:53:09.787Z,0
2023-02-08T21:55:09.197Z,0
2023-02-08T21:57:10.109Z,0
2023-02-08T21:59:09.335Z,0
2023-02-08T22:01:12.257Z,0
2023-02-08T22:03:09.391Z,0
2023-02-08T22:05:09.826Z,0
2023-02-08T22:07:09.215Z,0
2023-02-08T22:09:09.424Z,0
2023-02-08T22:11:20.526Z,0
2023-02-08T22:13:09.647Z,0
2023-02-08T22:15:09.093Z,0
2023-02-08T22:17:09.816Z,0
2023-02-08T22:19:09.138Z,0
2023-02-08T22:21:09.935Z,0
2023-02-08T22:23:08.847Z,0
2023-02-08T22:25:09.449Z,0
2023-02-08T22:27:09.028Z,0
2023-02-08T22:29:11.242Z,0
2023-02-08T22:31:11.677Z,0
2023-02-08T22:33:10.020Z,0
2023-02-08T22:35:09.455Z,0
2023-02-08T22:37:09.006Z,0
2023-02-08T22:39:09.614Z,0
2023-02-08T22:41:09.945Z,0
2023-02-08T22:43:09.770Z,0
2023-02-08T22:45:09.137Z,0
2023-02-08T22:47:09.970Z,0
2023-02-08T22:49:08.952Z,0
2023-02-08T22:51:09.887Z,0
2023-02-08T22:53:09.049Z,0
2023-02-08T22:55:09.557Z,0
2023-02-08T22:57:09.870Z,0
2023-02-08T22:59:09.342Z,0
2023-02-08T23:01:18.882Z,0.48
2023-02-08T23:03:09.610Z,0.48
2023-02-08T23:05:09.522Z,0.48
2023-02-08T23:07:09.220Z,0
2023-02-08T23:09:09.729Z,0
2023-02-08T23:11:09.555Z,0
2023-02-08T23:13:09.752Z,0.48
2023-02-08T23:15:09.424Z,0.48
2023-02-08T23:17:10.363Z,0.48
2023-02-08T23:19:09.335Z,0.48
2023-02-08T23:21:09.609Z,0.48
2023-02-08T23:23:09.523Z,0.48
2023-02-08T23:25:08.827Z,0
2023-02-08T23:27:09.383Z,0
2023-02-08T23:29:10.172Z,0
2023-02-08T23:31:10.064Z,0.48
2023-02-08T23:33:09.872Z,0.48
2023-02-08T23:35:09.402Z,0.48
2023-02-08T23:37:09.877Z,0
2023-02-08T23:39:09.109Z,0
2023-02-08T23:41:09.896Z,0
2023-02-08T23:43:11.261Z,0
2023-02-08T23:45:09.778Z,0
2023-02-08T23:47:09.601Z,0
2023-02-08T23:49:12.928Z,0
2023-02-08T23:51:10.003Z,0
2023-02-08T23:53:09.786Z,0
2023-02-08T23:55:09.119Z,0
2023-02-08T23:57:09.637Z,0
2023-02-08T23:59:09.157Z,0
